createdAt,value
2019-01-12T00:00:32.501Z,23.80
2019-01-12T00:01:32.481Z,23.50
2019-01-12T00:02:32.476Z,23.00
2019-01-12T00:03:32.484Z,22.60
2019-01-12T00:04:32.454Z,23.10
2019-01-12T00:05:32.434Z,22.40
2019-01-12T00:06:32.428Z,23.80
2019-01-12T00:07:32.420Z,23.10
2019-01-12T00:08:32.439Z,23.00
2019-01-12T00:09:32.396Z,23.50
2019-01-12T00:10:32.388Z,23.60
2019-01-12T00:11:32.408Z,23.10
2019-01-12T00:12:32.361Z,23.10
2019-01-12T00:13:32.371Z,22.70
2019-01-12T00:14:32.348Z,23.20
2019-01-12T00:15:32.336Z,23.60
2019-01-12T00:16:32.319Z,23.90
2019-01-12T00:17:32.318Z,23.50
2019-01-12T00:18:32.302Z,24.00
2019-01-12T00:19:32.302Z,23.20
2019-01-12T00:20:32.282Z,24.00
2019-01-12T00:21:32.260Z,24.70
2019-01-12T00:22:32.259Z,24.00
2019-01-12T00:23:32.244Z,24.50
2019-01-12T00:24:32.282Z,23.90
2019-01-12T00:25:32.216Z,24.10
2019-01-12T00:26:32.205Z,22.90
2019-01-12T00:27:32.195Z,24.60
2019-01-12T00:28:32.184Z,24.30
2019-01-12T00:29:32.206Z,22.90
2019-01-12T00:30:32.165Z,22.50
2019-01-12T00:31:32.150Z,24.30
2019-01-12T00:32:32.147Z,23.30
2019-01-12T00:33:32.134Z,24.20
2019-01-12T00:34:32.137Z,23.40
2019-01-12T00:35:32.113Z,23.60
2019-01-12T00:36:32.104Z,23.80
2019-01-12T00:37:32.088Z,22.90
2019-01-12T00:38:32.073Z,23.30
2019-01-12T00:39:32.083Z,22.90
2019-01-12T00:40:32.059Z,23.40
2019-01-12T00:41:32.045Z,23.70
2019-01-12T00:42:32.033Z,23.70
2019-01-12T00:43:32.022Z,23.10
2019-01-12T00:44:32.025Z,23.10
2019-01-12T00:45:31.993Z,23.50
2019-01-12T00:46:31.982Z,23.40
2019-01-12T00:47:32.768Z,23.80
2019-01-12T00:48:31.957Z,22.70
2019-01-12T00:49:31.964Z,23.10
2019-01-12T00:50:31.963Z,23.30
2019-01-12T00:51:31.926Z,22.50
2019-01-12T00:52:31.915Z,23.10
2019-01-12T00:53:31.909Z,23.30
2019-01-12T00:54:38.361Z,22.80
2019-01-12T00:55:32.905Z,23.50
2019-01-12T00:56:31.876Z,23.20
2019-01-12T00:57:31.864Z,23.60
2019-01-12T00:58:31.861Z,22.80
2019-01-12T00:59:31.854Z,23.10
2019-01-12T01:00:31.853Z,23.80
2019-01-12T01:01:31.836Z,22.70
2019-01-12T01:02:31.807Z,22.60
2019-01-12T01:03:31.799Z,23.40
2019-01-12T01:04:31.781Z,23.50
2019-01-12T01:05:31.787Z,23.60
2019-01-12T01:06:31.785Z,22.20
2019-01-12T01:07:31.749Z,22.70
2019-01-12T01:08:31.741Z,21.30
2019-01-12T01:09:31.726Z,23.60
2019-01-12T01:10:31.730Z,23.60
2019-01-12T01:11:31.711Z,21.90
2019-01-12T01:12:31.708Z,23.10
2019-01-12T01:13:31.684Z,22.90
2019-01-12T01:14:31.669Z,22.80
2019-01-12T01:15:31.690Z,23.00
2019-01-12T01:16:31.648Z,23.30
2019-01-12T01:17:31.660Z,21.80
2019-01-12T01:18:31.631Z,23.30
2019-01-12T01:19:31.624Z,22.10
2019-01-12T01:20:31.605Z,22.00
2019-01-12T01:21:31.614Z,22.10
2019-01-12T01:22:31.583Z,22.40
2019-01-12T01:23:31.577Z,21.20
2019-01-12T01:24:31.564Z,23.00
2019-01-12T01:25:31.564Z,21.70
2019-01-12T01:26:31.554Z,22.30
2019-01-12T01:27:31.527Z,22.00
2019-01-12T01:28:31.514Z,22.10
2019-01-12T01:29:31.503Z,22.30
2019-01-12T01:30:31.500Z,22.60
2019-01-12T01:31:31.515Z,22.40
2019-01-12T01:32:31.475Z,22.80
2019-01-12T01:33:31.461Z,21.10
2019-01-12T01:34:31.449Z,23.00
2019-01-12T01:35:31.487Z,22.00
2019-01-12T01:36:31.462Z,22.70
2019-01-12T01:37:31.420Z,23.40
2019-01-12T01:38:31.402Z,22.60
2019-01-12T01:39:31.397Z,22.00
2019-01-12T01:40:31.385Z,21.70
2019-01-12T01:41:31.371Z,22.20
2019-01-12T01:42:31.376Z,21.80
2019-01-12T01:43:31.367Z,21.90
2019-01-12T01:44:31.342Z,20.70
2019-01-12T01:45:31.326Z,21.50
2019-01-12T01:46:31.314Z,21.00
2019-01-12T01:47:31.326Z,21.60
2019-01-12T01:48:31.305Z,21.40
2019-01-12T01:49:31.286Z,21.90
2019-01-12T01:50:31.274Z,20.90
2019-01-12T01:51:31.260Z,21.20
2019-01-12T01:52:31.265Z,20.20
2019-01-12T01:53:31.241Z,20.50
2019-01-12T01:54:31.232Z,21.10
2019-01-12T01:55:31.232Z,20.90
2019-01-12T01:56:31.203Z,20.90
2019-01-12T01:57:31.211Z,20.20
2019-01-12T01:58:31.180Z,20.00
2019-01-12T01:59:31.170Z,19.80
2019-01-12T02:00:31.168Z,20.50
2019-01-12T02:01:31.157Z,20.20
2019-01-12T02:02:31.165Z,20.30
2019-01-12T02:03:31.141Z,20.50
2019-01-12T02:04:31.118Z,20.30
2019-01-12T02:05:31.113Z,20.80
2019-01-12T02:06:31.092Z,19.80
2019-01-12T02:07:31.083Z,20.00
2019-01-12T02:08:31.085Z,19.10
2019-01-12T02:09:31.059Z,19.90
2019-01-12T02:10:31.047Z,20.30
2019-01-12T02:11:31.037Z,20.80
2019-01-12T02:12:31.025Z,20.10
2019-01-12T02:13:31.045Z,19.70
2019-01-12T02:14:31.012Z,20.20
2019-01-12T02:15:30.996Z,20.20
2019-01-12T02:16:30.981Z,20.20
2019-01-12T02:17:30.978Z,19.70
2019-01-12T02:18:30.976Z,20.30
2019-01-12T02:19:30.952Z,20.10
2019-01-12T02:20:30.940Z,20.20
2019-01-12T02:21:30.944Z,19.70
2019-01-12T02:22:30.925Z,19.80
2019-01-12T02:23:30.927Z,20.20
2019-01-12T02:24:30.892Z,19.20
2019-01-12T02:25:30.882Z,19.30
2019-01-12T02:26:30.870Z,20.00
2019-01-12T02:27:30.858Z,19.90
2019-01-12T02:28:30.858Z,19.70
2019-01-12T02:29:30.850Z,20.50
2019-01-12T02:30:30.826Z,19.60
2019-01-12T02:31:30.813Z,19.30
2019-01-12T02:32:30.804Z,20.50
2019-01-12T02:33:30.791Z,20.00
2019-01-12T02:34:30.806Z,20.90
2019-01-12T02:35:30.776Z,20.00
2019-01-12T02:36:30.757Z,21.10
2019-01-12T02:37:30.746Z,20.50
2019-01-12T02:38:30.735Z,21.10
2019-01-12T02:39:30.745Z,21.20
2019-01-12T02:40:30.714Z,20.80
2019-01-12T02:41:30.709Z,20.10
2019-01-12T02:42:30.689Z,20.70
2019-01-12T02:43:30.677Z,21.60
2019-01-12T02:44:30.691Z,21.80
2019-01-12T02:45:30.660Z,20.40
2019-01-12T02:46:30.656Z,20.90
2019-01-12T02:47:30.640Z,20.80
2019-01-12T02:48:30.626Z,20.60
2019-01-12T02:49:30.636Z,21.40
2019-01-12T02:50:30.606Z,20.20
2019-01-12T02:51:30.591Z,21.90
2019-01-12T02:52:30.581Z,21.20
2019-01-12T02:53:30.572Z,21.00
2019-01-12T02:54:30.582Z,21.10
2019-01-12T02:55:30.562Z,20.90
2019-01-12T02:56:30.535Z,20.30
2019-01-12T02:57:30.524Z,20.40
2019-01-12T02:58:30.512Z,20.00
2019-01-12T02:59:30.529Z,20.40
2019-01-12T03:00:30.503Z,21.60
2019-01-12T03:01:30.480Z,22.40
2019-01-12T03:02:30.467Z,21.00
2019-01-12T03:03:30.456Z,21.20
2019-01-12T03:04:30.448Z,21.00
2019-01-12T03:05:30.455Z,20.60
2019-01-12T03:06:30.424Z,20.90
2019-01-12T03:07:30.419Z,20.80
2019-01-12T03:08:30.403Z,21.80
2019-01-12T03:09:30.403Z,21.00
2019-01-12T03:10:30.399Z,21.80
2019-01-12T03:11:30.370Z,23.00
2019-01-12T03:12:30.360Z,22.30
2019-01-12T03:13:30.354Z,21.10
2019-01-12T03:14:30.334Z,20.70
2019-01-12T03:15:30.323Z,21.20
2019-01-12T03:16:30.340Z,20.50
2019-01-12T03:17:30.303Z,20.90
2019-01-12T03:18:30.291Z,21.00
2019-01-12T03:19:30.288Z,20.90
2019-01-12T03:20:30.269Z,21.40
2019-01-12T03:21:30.285Z,20.90
2019-01-12T03:22:30.253Z,21.90
2019-01-12T03:23:30.246Z,20.70
2019-01-12T03:24:30.222Z,21.30
2019-01-12T03:25:30.230Z,20.80
2019-01-12T03:26:30.203Z,21.10
2019-01-12T03:27:30.195Z,21.00
2019-01-12T03:28:30.181Z,20.90
2019-01-12T03:29:30.169Z,21.10
2019-01-12T03:30:30.183Z,21.20
2019-01-12T03:31:30.164Z,20.60
2019-01-12T03:32:30.135Z,20.40
2019-01-12T03:33:30.133Z,20.80
2019-01-12T03:34:30.120Z,21.50
2019-01-12T03:35:30.099Z,21.50
2019-01-12T03:36:30.108Z,20.30
2019-01-12T03:37:30.078Z,19.90
2019-01-12T03:38:30.074Z,21.40
2019-01-12T03:39:30.065Z,20.90
2019-01-12T03:40:30.056Z,20.90
2019-01-12T03:41:30.052Z,20.40
2019-01-12T03:42:30.031Z,21.50
2019-01-12T03:43:30.012Z,21.20
2019-01-12T03:44:30.002Z,21.00
2019-01-12T03:45:30.001Z,21.00
2019-01-12T03:46:30.005Z,21.60
2019-01-12T03:47:29.975Z,21.50
2019-01-12T03:48:29.972Z,20.10
2019-01-12T03:49:29.947Z,21.80
2019-01-12T03:50:29.936Z,21.10
2019-01-12T03:51:29.929Z,20.50
2019-01-12T03:52:29.957Z,20.90
2019-01-12T03:53:29.914Z,20.60
2019-01-12T03:54:29.888Z,21.00
2019-01-12T03:55:29.888Z,20.60
2019-01-12T03:56:29.870Z,20.90
2019-01-12T03:57:29.858Z,19.90
2019-01-12T03:58:29.890Z,19.70
2019-01-12T03:59:29.835Z,20.90
2019-01-12T04:00:29.841Z,20.10
2019-01-12T04:01:29.814Z,18.90
2019-01-12T04:02:29.845Z,20.60
2019-01-12T04:03:29.798Z,18.80
2019-01-12T04:04:29.779Z,19.20
2019-01-12T04:05:29.768Z,20.60
2019-01-12T04:06:29.768Z,20.30
2019-01-12T04:07:29.745Z,20.20
2019-01-12T04:08:29.757Z,19.50
2019-01-12T04:09:29.722Z,19.30
2019-01-12T04:10:29.712Z,20.10
2019-01-12T04:11:29.709Z,19.50
2019-01-12T04:12:29.691Z,19.50
2019-01-12T04:13:29.694Z,19.50
2019-01-12T04:14:29.669Z,20.40
2019-01-12T04:15:29.656Z,19.60
2019-01-12T04:16:29.648Z,18.30
2019-01-12T04:17:29.640Z,19.20
2019-01-12T04:18:29.653Z,18.30
2019-01-12T04:19:29.611Z,19.60
2019-01-12T04:20:29.604Z,18.50
2019-01-12T04:21:29.599Z,18.70
2019-01-12T04:22:29.578Z,19.00
2019-01-12T04:23:29.593Z,19.00
2019-01-12T04:24:29.559Z,19.20
2019-01-12T04:25:33.945Z,18.60
2019-01-12T04:26:29.534Z,19.60
2019-01-12T04:27:29.526Z,18.60
2019-01-12T04:28:29.535Z,19.60
2019-01-12T04:29:29.512Z,19.30
2019-01-12T04:30:29.501Z,19.60
2019-01-12T04:31:29.476Z,18.50
2019-01-12T04:32:29.475Z,19.40
2019-01-12T04:33:29.456Z,19.10
2019-01-12T04:34:29.460Z,18.70
2019-01-12T04:35:29.439Z,19.10
2019-01-12T04:36:29.485Z,18.00
2019-01-12T04:37:29.418Z,18.80
2019-01-12T04:38:29.403Z,19.00
2019-01-12T04:39:29.406Z,18.70
2019-01-12T04:40:29.383Z,17.40
2019-01-12T04:41:29.376Z,17.50
2019-01-12T04:42:29.360Z,18.20
2019-01-12T04:43:29.348Z,17.60
2019-01-12T04:44:29.354Z,17.30
2019-01-12T04:45:29.322Z,17.30
2019-01-12T04:46:29.313Z,18.80
2019-01-12T04:47:29.300Z,17.60
2019-01-12T04:48:29.294Z,16.10
2019-01-12T04:49:29.311Z,17.40
2019-01-12T04:50:29.270Z,17.60
2019-01-12T04:51:29.258Z,16.30
2019-01-12T04:52:29.244Z,17.90
2019-01-12T04:53:29.235Z,17.10
2019-01-12T04:54:29.240Z,17.40
2019-01-12T04:55:29.232Z,17.20
2019-01-12T04:56:29.200Z,17.30
2019-01-12T04:57:29.190Z,18.10
2019-01-12T04:58:29.177Z,17.90
2019-01-12T04:59:29.172Z,18.30
2019-01-12T05:00:29.182Z,17.70
2019-01-12T05:01:29.145Z,18.00
2019-01-12T05:02:29.132Z,17.90
2019-01-12T05:03:29.123Z,19.30
2019-01-12T05:04:29.113Z,18.40
2019-01-12T05:05:29.117Z,17.30
2019-01-12T05:06:29.095Z,18.20
2019-01-12T05:07:29.085Z,16.90
2019-01-12T05:08:29.076Z,18.00
2019-01-12T05:09:29.057Z,17.90
2019-01-12T05:10:29.070Z,17.10
2019-01-12T05:11:29.034Z,17.10
2019-01-12T05:12:29.022Z,16.60
2019-01-12T05:13:29.015Z,15.90
2019-01-12T05:14:29.001Z,17.20
2019-01-12T05:15:29.007Z,16.10
2019-01-12T05:16:28.997Z,15.70
2019-01-12T05:17:28.966Z,16.20
2019-01-12T05:18:28.961Z,16.40
2019-01-12T05:19:28.947Z,16.50
2019-01-12T05:20:28.950Z,16.10
2019-01-12T05:21:28.921Z,16.80
2019-01-12T05:22:28.916Z,18.00
2019-01-12T05:23:28.907Z,19.00
2019-01-12T05:24:28.891Z,16.20
2019-01-12T05:25:28.905Z,16.90
2019-01-12T05:26:28.866Z,16.80
2019-01-12T05:27:28.856Z,16.20
2019-01-12T05:28:28.849Z,17.10
2019-01-12T05:29:28.835Z,16.90
2019-01-12T05:30:28.841Z,16.30
2019-01-12T05:31:28.840Z,17.10
2019-01-12T05:32:28.810Z,17.60
2019-01-12T05:33:28.795Z,17.60
2019-01-12T05:34:28.784Z,16.20
2019-01-12T05:35:28.776Z,17.20
2019-01-12T05:36:28.784Z,16.70
2019-01-12T05:37:28.751Z,16.60
2019-01-12T05:38:28.738Z,17.10
2019-01-12T05:39:28.732Z,16.60
2019-01-12T05:40:28.718Z,17.10
2019-01-12T05:41:28.719Z,16.80
2019-01-12T05:42:28.700Z,17.90
2019-01-12T05:43:28.684Z,16.40
2019-01-12T05:44:28.673Z,17.00
2019-01-12T05:45:28.661Z,16.80
2019-01-12T05:46:28.665Z,17.20
2019-01-12T05:47:28.640Z,16.80
2019-01-12T05:48:28.634Z,16.90
2019-01-12T05:49:28.618Z,16.90
2019-01-12T05:50:28.610Z,17.00
2019-01-12T05:51:28.623Z,16.20
2019-01-12T05:52:28.585Z,17.00
2019-01-12T05:53:28.581Z,16.00
2019-01-12T05:54:28.571Z,17.00
2019-01-12T05:55:28.551Z,16.70
2019-01-12T05:56:28.566Z,17.10
2019-01-12T05:57:28.529Z,16.70
2019-01-12T05:58:28.519Z,17.10
2019-01-12T05:59:28.509Z,17.20
2019-01-12T06:00:28.513Z,16.80
2019-01-12T06:01:28.511Z,16.10
2019-01-12T06:02:28.479Z,16.90
2019-01-12T06:03:28.464Z,16.20
2019-01-12T06:04:28.470Z,16.80
2019-01-12T06:05:28.442Z,16.00
2019-01-12T06:06:28.444Z,16.00
2019-01-12T06:07:28.460Z,16.70
2019-01-12T06:08:28.416Z,16.20
2019-01-12T06:09:28.423Z,16.80
2019-01-12T06:10:28.387Z,16.20
2019-01-12T06:11:28.375Z,15.90
2019-01-12T06:12:28.387Z,15.70
2019-01-12T06:13:28.353Z,17.00
2019-01-12T06:14:28.346Z,15.50
2019-01-12T06:15:28.331Z,15.80
2019-01-12T06:16:28.321Z,16.20
2019-01-12T06:17:28.328Z,15.60
2019-01-12T06:18:28.314Z,15.60
2019-01-12T06:19:28.290Z,15.40
2019-01-12T06:20:28.279Z,15.00
2019-01-12T06:21:28.266Z,15.90
2019-01-12T06:22:28.272Z,15.70
2019-01-12T06:23:28.269Z,14.50
2019-01-12T06:24:28.248Z,13.80
2019-01-12T06:25:28.230Z,14.80
2019-01-12T06:26:28.217Z,14.40
2019-01-12T06:27:28.258Z,14.70
2019-01-12T06:28:28.219Z,14.40
2019-01-12T06:29:28.190Z,12.80
2019-01-12T06:30:28.188Z,14.10
2019-01-12T06:31:28.159Z,13.50
2019-01-12T06:32:28.149Z,13.50
2019-01-12T06:33:28.155Z,13.40
2019-01-12T06:34:28.129Z,14.90
2019-01-12T06:35:28.116Z,14.60
2019-01-12T06:36:28.134Z,13.40
2019-01-12T06:37:28.098Z,13.30
2019-01-12T06:38:28.099Z,14.20
2019-01-12T06:39:28.071Z,13.90
2019-01-12T06:40:28.060Z,14.20
2019-01-12T06:41:28.059Z,13.70
2019-01-12T06:42:28.057Z,13.60
2019-01-12T06:43:28.042Z,13.90
2019-01-12T06:44:28.025Z,14.90
2019-01-12T06:45:28.007Z,14.40
2019-01-12T06:46:27.998Z,14.70
2019-01-12T06:47:27.990Z,14.50
2019-01-12T06:48:27.999Z,15.50
2019-01-12T06:49:27.964Z,15.20
2019-01-12T06:50:27.952Z,14.60
2019-01-12T06:51:27.942Z,14.10
2019-01-12T06:52:27.929Z,14.30
2019-01-12T06:53:27.938Z,13.90
2019-01-12T06:54:27.918Z,14.40
2019-01-12T06:55:27.898Z,14.70
2019-01-12T06:56:27.889Z,14.60
2019-01-12T06:57:27.879Z,14.00
2019-01-12T06:58:27.886Z,14.60
2019-01-12T06:59:27.856Z,14.70
2019-01-12T07:00:27.854Z,13.60
2019-01-12T07:01:27.843Z,13.70
2019-01-12T07:02:27.821Z,12.90
2019-01-12T07:03:27.812Z,13.70
2019-01-12T07:04:27.824Z,12.90
2019-01-12T07:05:27.800Z,14.00
2019-01-12T07:06:27.784Z,13.60
2019-01-12T07:07:27.767Z,13.90
2019-01-12T07:08:27.758Z,13.60
2019-01-12T07:09:27.747Z,13.30
2019-01-12T07:10:27.751Z,13.70
2019-01-12T07:11:27.726Z,13.30
2019-01-12T07:12:27.723Z,14.10
2019-01-12T07:13:27.706Z,12.90
2019-01-12T07:14:27.704Z,12.40
2019-01-12T07:15:27.698Z,13.50
2019-01-12T07:16:27.670Z,12.40
2019-01-12T07:17:27.661Z,12.90
2019-01-12T07:18:27.653Z,12.90
2019-01-12T07:19:27.637Z,13.80
2019-01-12T07:20:27.653Z,13.30
2019-01-12T07:21:27.618Z,13.40
2019-01-12T07:22:27.603Z,12.90
2019-01-12T07:23:27.603Z,12.90
2019-01-12T07:24:27.609Z,12.80
2019-01-12T07:25:27.596Z,12.60
2019-01-12T07:26:27.563Z,12.80
2019-01-12T07:27:27.553Z,12.90
2019-01-12T07:28:27.546Z,11.90
2019-01-12T07:29:27.529Z,12.60
2019-01-12T07:30:27.536Z,12.60
2019-01-12T07:31:27.512Z,12.60
2019-01-12T07:32:27.497Z,11.30
2019-01-12T07:33:27.490Z,10.50
2019-01-12T07:34:27.476Z,10.60
2019-01-12T07:35:27.480Z,10.00
2019-01-12T07:36:27.457Z,10.90
2019-01-12T07:37:27.447Z,8.50
2019-01-12T07:38:27.441Z,8.70
2019-01-12T07:39:27.423Z,8.80
2019-01-12T07:40:27.429Z,8.30
2019-01-12T07:41:27.421Z,7.80
2019-01-12T07:42:27.390Z,7.40
2019-01-12T07:43:27.388Z,6.90
2019-01-12T07:44:27.377Z,7.60
2019-01-12T07:45:27.398Z,6.50
2019-01-12T07:46:27.365Z,6.70
2019-01-12T07:47:27.337Z,6.40
2019-01-12T07:48:27.325Z,6.60
2019-01-12T07:49:27.315Z,6.20
2019-01-12T07:50:27.305Z,5.90
2019-01-12T07:51:27.316Z,6.00
2019-01-12T07:52:27.283Z,5.40
2019-01-12T07:53:27.279Z,5.90
2019-01-12T07:54:27.266Z,5.60
2019-01-12T07:55:27.256Z,5.10
2019-01-12T07:56:27.260Z,5.20
2019-01-12T07:57:27.236Z,5.60
2019-01-12T07:58:27.225Z,5.20
2019-01-12T07:59:27.207Z,5.70
2019-01-12T08:00:27.204Z,5.60
2019-01-12T08:01:27.187Z,5.60
2019-01-12T08:02:27.191Z,5.20
2019-01-12T08:03:27.160Z,5.00
2019-01-12T08:04:27.150Z,5.20
2019-01-12T08:05:27.144Z,5.60
2019-01-12T08:06:27.155Z,5.10
2019-01-12T08:07:27.116Z,4.80
2019-01-12T08:08:27.107Z,4.70
2019-01-12T08:09:27.103Z,5.00
2019-01-12T08:10:27.198Z,4.70
2019-01-12T08:11:27.076Z,4.70
2019-01-12T08:12:27.082Z,4.80
2019-01-12T08:13:27.050Z,4.70
2019-01-12T08:14:27.040Z,4.60
2019-01-12T08:15:27.039Z,4.90
2019-01-12T08:16:27.019Z,5.00
2019-01-12T08:17:27.014Z,5.60
2019-01-12T08:18:27.020Z,5.70
2019-01-12T08:19:26.986Z,5.70
2019-01-12T08:20:26.984Z,5.80
2019-01-12T08:21:26.977Z,5.60
2019-01-12T08:22:26.975Z,6.20
2019-01-12T08:23:26.964Z,6.50
2019-01-12T08:24:26.936Z,6.80
2019-01-12T08:25:26.923Z,6.80
2019-01-12T08:26:31.179Z,6.20
2019-01-12T08:27:26.914Z,6.20
2019-01-12T08:28:26.909Z,5.90
2019-01-12T08:29:26.888Z,6.40
2019-01-12T08:30:26.868Z,6.40
2019-01-12T08:31:26.864Z,6.30
2019-01-12T08:32:26.846Z,6.20
2019-01-12T08:33:26.854Z,6.20
2019-01-12T08:34:26.827Z,5.90
2019-01-12T08:35:26.811Z,5.50
2019-01-12T08:36:26.801Z,5.50
2019-01-12T08:37:26.795Z,5.20
2019-01-12T08:38:26.798Z,5.40
2019-01-12T08:39:26.784Z,4.40
2019-01-12T08:40:26.755Z,5.10
2019-01-12T08:41:26.746Z,4.70
2019-01-12T08:42:27.165Z,4.80
2019-01-12T08:43:26.723Z,5.30
2019-01-12T08:44:26.730Z,4.50
2019-01-12T08:45:26.703Z,4.40
2019-01-12T08:46:26.692Z,4.60
2019-01-12T08:47:26.678Z,4.70
2019-01-12T08:48:26.678Z,4.60
2019-01-12T08:49:26.674Z,4.80
2019-01-12T08:50:26.645Z,3.90
2019-01-12T08:51:26.644Z,4.20
2019-01-12T08:52:26.622Z,4.30
2019-01-12T08:53:26.611Z,4.90
2019-01-12T08:54:26.632Z,4.50
2019-01-12T08:55:26.595Z,4.20
2019-01-12T08:56:26.577Z,4.00
2019-01-12T08:57:26.587Z,4.40
2019-01-12T08:58:26.554Z,4.30
2019-01-12T08:59:26.545Z,3.90
2019-01-12T09:00:26.556Z,4.20
2019-01-12T09:01:26.526Z,4.00
2019-01-12T09:02:26.517Z,4.10
2019-01-12T09:03:26.504Z,3.70
2019-01-12T09:04:26.512Z,3.50
2019-01-12T09:05:26.479Z,3.80
2019-01-12T09:06:26.472Z,3.30
2019-01-12T09:07:26.458Z,3.70
2019-01-12T09:08:26.450Z,3.50
2019-01-12T09:09:26.457Z,3.60
2019-01-12T09:10:26.441Z,3.60
2019-01-12T09:11:26.412Z,3.00
2019-01-12T09:12:26.415Z,3.20
2019-01-12T09:13:26.399Z,3.30
2019-01-12T09:14:26.383Z,3.00
2019-01-12T09:15:26.384Z,3.10
2019-01-12T09:16:26.377Z,3.30
2019-01-12T09:17:26.350Z,3.00
2019-01-12T09:18:26.335Z,3.30
2019-01-12T09:19:26.332Z,3.40
2019-01-12T09:20:26.330Z,3.40
2019-01-12T09:21:26.333Z,3.30
2019-01-12T09:22:26.289Z,3.30
2019-01-12T09:23:26.281Z,3.90
2019-01-12T09:24:26.289Z,3.30
2019-01-12T09:25:26.270Z,3.20
2019-01-12T09:26:26.248Z,3.00
2019-01-12T09:27:26.232Z,3.50
2019-01-12T09:28:26.222Z,3.20
2019-01-12T09:29:26.225Z,3.40
2019-01-12T09:30:26.217Z,3.50
2019-01-12T09:31:26.191Z,3.50
2019-01-12T09:32:26.176Z,3.90
2019-01-12T09:33:26.164Z,3.80
2019-01-12T09:34:26.167Z,4.00
2019-01-12T09:35:26.176Z,3.60
2019-01-12T09:36:26.167Z,3.80
2019-01-12T09:37:26.118Z,4.50
2019-01-12T09:38:26.112Z,4.00
2019-01-12T09:39:26.097Z,3.80
2019-01-12T09:40:26.092Z,4.40
2019-01-12T09:41:26.095Z,4.30
2019-01-12T09:42:26.061Z,3.90
2019-01-12T09:43:26.059Z,4.40
2019-01-12T09:44:26.038Z,4.00
2019-01-12T09:45:26.028Z,3.90
2019-01-12T09:46:26.031Z,4.00
2019-01-12T09:47:26.014Z,3.70
2019-01-12T09:48:25.992Z,4.00
2019-01-12T09:49:25.982Z,4.10
2019-01-12T09:50:25.971Z,3.70
2019-01-12T09:51:25.980Z,4.00
2019-01-12T09:52:26.068Z,3.80
2019-01-12T09:53:25.943Z,3.60
2019-01-12T09:54:25.926Z,4.00
2019-01-12T09:55:25.921Z,3.80
2019-01-12T09:56:25.906Z,3.80
2019-01-12T09:57:25.914Z,4.10
2019-01-12T09:58:25.887Z,4.30
2019-01-12T09:59:27.058Z,3.40
2019-01-12T10:00:25.858Z,3.70
2019-01-12T10:01:25.873Z,3.70
2019-01-12T10:02:25.836Z,3.60
2019-01-12T10:03:25.823Z,3.80
2019-01-12T10:04:25.824Z,4.00
2019-01-12T10:05:25.815Z,3.60
2019-01-12T10:06:25.791Z,3.70
2019-01-12T10:07:25.796Z,3.70
2019-01-12T10:08:25.766Z,3.80
2019-01-12T10:09:25.757Z,3.90
2019-01-12T10:10:25.747Z,3.80
2019-01-12T10:11:25.743Z,3.50
2019-01-12T10:12:25.730Z,3.80
2019-01-12T10:13:25.722Z,3.70
2019-01-12T10:14:25.703Z,3.60
2019-01-12T10:15:25.693Z,3.10
2019-01-12T10:16:25.685Z,3.20
2019-01-12T10:17:25.682Z,3.10
2019-01-12T10:18:25.674Z,3.70
2019-01-12T10:19:25.642Z,3.30
2019-01-12T10:20:25.636Z,3.80
2019-01-12T10:21:25.618Z,3.60
2019-01-12T10:22:28.680Z,3.60
2019-01-12T10:23:25.627Z,3.70
2019-01-12T10:24:25.602Z,3.40
2019-01-12T10:25:25.581Z,3.70
2019-01-12T10:26:25.565Z,3.60
2019-01-12T10:27:25.555Z,3.60
2019-01-12T10:28:25.542Z,3.50
2019-01-12T10:29:25.567Z,3.80
2019-01-12T10:30:25.532Z,3.60
2019-01-12T10:31:25.517Z,3.80
2019-01-12T10:32:25.502Z,3.90
2019-01-12T10:33:25.549Z,3.70
2019-01-12T10:34:25.474Z,3.60
2019-01-12T10:35:25.542Z,3.80
2019-01-12T10:36:25.456Z,4.20
2019-01-12T10:37:25.443Z,4.20
2019-01-12T10:38:25.429Z,3.90
2019-01-12T10:39:25.443Z,3.90
2019-01-12T10:40:25.407Z,4.30
2019-01-12T10:41:25.411Z,4.00
2019-01-12T10:42:25.396Z,3.80
2019-01-12T10:43:25.385Z,4.10
2019-01-12T10:44:25.380Z,4.00
2019-01-12T10:45:25.376Z,4.10
2019-01-12T10:46:25.345Z,4.10
2019-01-12T10:47:25.335Z,3.90
2019-01-12T10:48:25.332Z,4.60
2019-01-12T10:49:25.332Z,4.20
2019-01-12T10:50:25.346Z,4.00
2019-01-12T10:51:25.284Z,4.40
2019-01-12T10:52:25.281Z,4.40
2019-01-12T10:53:25.268Z,4.50
2019-01-12T10:54:25.274Z,4.70
2019-01-12T10:55:25.273Z,4.80
2019-01-12T10:56:25.230Z,4.70
2019-01-12T10:57:25.218Z,4.60
2019-01-12T10:58:25.210Z,4.90
2019-01-12T10:59:25.215Z,5.10
2019-01-12T11:00:25.220Z,5.20
2019-01-12T11:01:25.175Z,4.80
2019-01-12T11:02:25.161Z,5.00
2019-01-12T11:03:25.160Z,5.30
2019-01-12T11:04:25.141Z,5.80
2019-01-12T11:05:25.131Z,5.70
2019-01-12T11:06:25.165Z,6.10
2019-01-12T11:07:25.111Z,5.40
2019-01-12T11:08:25.101Z,5.60
2019-01-12T11:09:25.082Z,6.10
2019-01-12T11:10:25.115Z,5.20
2019-01-12T11:11:25.082Z,5.80
2019-01-12T11:12:25.061Z,6.00
2019-01-12T11:13:25.042Z,6.10
2019-01-12T11:14:25.026Z,5.90
2019-01-12T11:15:25.049Z,6.10
2019-01-12T11:16:25.040Z,6.10
2019-01-12T11:17:25.011Z,6.10
2019-01-12T11:18:24.986Z,5.80
2019-01-12T11:19:24.973Z,6.50
2019-01-12T11:20:24.968Z,6.60
2019-01-12T11:21:24.981Z,6.80
2019-01-12T11:22:24.976Z,6.20
2019-01-12T11:23:24.948Z,6.20
2019-01-12T11:24:24.939Z,6.60
2019-01-12T11:25:24.907Z,5.80
2019-01-12T11:26:24.925Z,6.40
2019-01-12T11:27:24.892Z,6.50
2019-01-12T11:28:24.875Z,6.90
2019-01-12T11:29:24.870Z,6.80
2019-01-12T11:30:24.853Z,6.70
2019-01-12T11:31:24.866Z,6.90
2019-01-12T11:32:24.837Z,6.70
2019-01-12T11:33:24.820Z,7.10
2019-01-12T11:34:24.810Z,6.40
2019-01-12T11:35:24.806Z,6.90
2019-01-12T11:36:24.816Z,7.10
2019-01-12T11:37:24.778Z,7.70
2019-01-12T11:38:24.764Z,6.80
2019-01-12T11:39:24.757Z,6.60
2019-01-12T11:40:24.736Z,6.60
2019-01-12T11:41:24.722Z,6.90
2019-01-12T11:42:24.730Z,6.90
2019-01-12T11:43:24.712Z,6.40
2019-01-12T11:44:24.697Z,6.30
2019-01-12T11:45:24.681Z,6.90
2019-01-12T11:46:24.694Z,6.20
2019-01-12T11:47:24.685Z,6.30
2019-01-12T11:48:24.658Z,6.60
2019-01-12T11:49:24.638Z,6.40
2019-01-12T11:50:24.648Z,5.90
2019-01-12T11:51:24.611Z,6.60
2019-01-12T11:52:24.623Z,6.50
2019-01-12T11:53:24.585Z,6.60
2019-01-12T11:54:24.575Z,6.40
2019-01-12T11:55:24.565Z,6.50
2019-01-12T11:56:24.565Z,7.20
2019-01-12T11:57:24.584Z,6.90
2019-01-12T11:58:24.558Z,6.90
2019-01-12T11:59:24.534Z,6.90
2019-01-12T12:00:24.525Z,7.00
2019-01-12T12:01:24.511Z,6.80
2019-01-12T12:02:24.491Z,6.90
2019-01-12T12:03:24.495Z,7.10
2019-01-12T12:04:24.464Z,7.50
2019-01-12T12:05:24.467Z,7.30
2019-01-12T12:06:24.446Z,8.00
2019-01-12T12:07:24.434Z,7.60
2019-01-12T12:08:24.442Z,7.70
2019-01-12T12:09:24.408Z,7.80
2019-01-12T12:10:24.395Z,7.50
2019-01-12T12:11:24.394Z,8.10
2019-01-12T12:12:24.373Z,8.30
2019-01-12T12:13:24.380Z,8.30
2019-01-12T12:14:24.355Z,8.60
2019-01-12T12:15:24.338Z,8.00
2019-01-12T12:16:24.326Z,8.80
2019-01-12T12:17:24.323Z,8.40
2019-01-12T12:18:24.323Z,9.00
2019-01-12T12:19:24.297Z,9.40
2019-01-12T12:20:24.280Z,8.60
2019-01-12T12:21:24.270Z,9.30
2019-01-12T12:22:24.266Z,8.80
2019-01-12T12:23:24.300Z,8.70
2019-01-12T12:24:24.241Z,9.10
2019-01-12T12:25:24.230Z,9.00
2019-01-12T12:26:24.213Z,8.80
2019-01-12T12:27:26.074Z,9.00
2019-01-12T12:28:24.221Z,9.40
2019-01-12T12:29:24.183Z,8.60
2019-01-12T12:30:24.176Z,9.00
2019-01-12T12:31:24.157Z,8.60
2019-01-12T12:32:24.153Z,9.30
2019-01-12T12:33:24.179Z,8.90
2019-01-12T12:34:24.131Z,8.90
2019-01-12T12:35:24.118Z,9.60
2019-01-12T12:36:24.101Z,9.20
2019-01-12T12:37:24.091Z,9.00
2019-01-12T12:38:24.099Z,9.30
2019-01-12T12:39:24.099Z,9.20
2019-01-12T12:40:24.062Z,9.20
2019-01-12T12:41:24.088Z,9.40
2019-01-12T12:42:24.043Z,9.40
2019-01-12T12:43:24.024Z,8.70
2019-01-12T12:44:24.030Z,9.30
2019-01-12T12:45:24.021Z,9.70
2019-01-12T12:46:23.989Z,9.00
2019-01-12T12:47:23.984Z,9.90
2019-01-12T12:48:25.517Z,9.60
2019-01-12T12:49:23.985Z,9.70
2019-01-12T12:50:23.944Z,9.20
2019-01-12T12:51:23.936Z,8.80
2019-01-12T12:52:23.920Z,9.80
2019-01-12T12:53:23.933Z,9.60
2019-01-12T12:54:23.942Z,10.10
2019-01-12T12:55:23.895Z,9.80
2019-01-12T12:56:23.874Z,10.30
2019-01-12T12:57:23.866Z,10.30
2019-01-12T12:58:23.863Z,10.30
2019-01-12T12:59:23.874Z,9.60
2019-01-12T13:00:23.850Z,10.20
2019-01-12T13:01:23.821Z,10.40
2019-01-12T13:02:23.815Z,10.30
2019-01-12T13:03:23.798Z,9.70